Time;durP1;ratioP1;P1;durP2;ratioP2;P2;SDS_P1;SDS_P2;PMS_P1;PMS_P2;Temp;Humidity;BMP_temperature;BMP_pressure;BME280_temperature;BME280_humidity;BME280_pressure;Samples;Min_cycle;Max_cycle;Signal;HPM_P1;HPM_P2
2021/12/27 00:00:58;;;;;;;9.98;5.95;;;4.80;99.90;;;4.80;100.00;99542.88;4977138;28;20217;-65
2021/12/27 00:03:26;;;;;;;8.43;5.03;;;4.70;99.90;;;4.78;100.00;99552.47;4994051;28;20207;-63
2021/12/27 00:05:53;;;;;;;10.20;5.85;;;4.70;99.90;;;4.81;100.00;99554.88;4993848;28;20696;-66
2021/12/27 00:08:23;;;;;;;14.40;7.45;;;4.70;99.90;;;4.75;100.00;99537.19;4993038;28;20266;-66
2021/12/27 00:10:50;;;;;;;8.50;5.18;;;4.70;99.90;;;4.75;100.00;99538.00;4976920;28;20249;-64
2021/12/27 00:13:18;;;;;;;9.98;6.05;;;4.70;99.90;;;4.72;100.00;99536.47;4993809;28;20210;-64
2021/12/27 00:15:45;;;;;;;8.88;5.03;;;4.70;99.90;;;4.71;100.00;99542.53;4976547;28;20612;-64
2021/12/27 00:18:12;;;;;;;5.07;3.47;;;4.60;99.90;;;4.73;100.00;99538.09;4976812;28;20314;-64
2021/12/27 00:20:39;;;;;;;7.57;4.63;;;4.60;99.90;;;4.76;100.00;99525.91;4993937;28;20208;-64
2021/12/27 00:23:06;;;;;;;9.70;5.40;;;4.70;99.90;;;4.79;100.00;99536.91;4993681;28;20219;-65
2021/12/27 00:25:33;;;;;;;6.25;4.35;;;4.70;99.90;;;4.80;100.00;99535.94;4993290;28;20203;-64
2021/12/27 00:28:00;;;;;;;9.20;5.10;;;4.70;99.90;;;4.82;100.00;99531.50;4992556;28;20234;-65
2021/12/27 00:30:27;;;;;;;17.33;6.68;;;4.80;99.90;;;4.84;100.00;99526.22;4976439;28;20251;-64
2021/12/27 00:32:53;;;;;;;10.27;5.85;;;4.80;99.90;;;4.83;100.00;99529.75;4976399;28;20207;-64
2021/12/27 00:35:25;;;;;;;11.98;5.53;;;4.80;99.90;;;4.76;100.00;99515.56;4993397;28;20207;-66
2021/12/27 00:37:53;;;;;;;6.53;4.05;;;4.70;99.90;;;4.75;100.00;99524.28;4993786;28;20266;-65
2021/12/27 00:40:20;;;;;;;12.50;5.97;;;4.60;99.90;;;4.76;100.00;99524.16;4993325;28;20290;-64
2021/12/27 00:42:49;;;;;;;9.60;5.57;;;4.70;99.90;;;4.78;100.00;99524.06;4976245;28;20302;-63
2021/12/27 00:45:17;;;;;;;9.35;5.65;;;4.70;99.90;;;4.79;100.00;99516.22;4993271;28;20247;-64
2021/12/27 00:47:44;;;;;;;10.48;5.40;;;4.80;99.90;;;4.78;100.00;99522.31;4993375;28;20310;-63
2021/12/27 00:50:11;;;;;;;13.60;6.65;;;4.70;99.90;;;4.79;100.00;99523.13;4989288;28;20209;-64
2021/12/27 00:52:38;;;;;;;10.02;6.00;;;4.80;99.90;;;4.72;100.00;99523.53;4992630;28;20200;-65
2021/12/27 00:55:08;;;;;;;10.38;5.75;;;4.70;99.90;;;4.67;100.00;99523.00;4991624;28;20727;-64
2021/12/27 00:57:36;;;;;;;6.68;4.82;;;4.60;99.90;;;4.69;100.00;99522.91;4976198;28;20230;-63
2021/12/27 01:00:08;;;;;;;7.18;3.95;;;4.60;99.90;;;4.72;100.00;99530.47;4992737;28;20199;-64
2021/12/27 01:02:35;;;;;;;9.88;4.45;;;4.60;99.90;;;4.75;100.00;99524.28;4988882;28;20204;-64
2021/12/27 01:05:02;;;;;;;7.82;3.95;;;4.70;99.90;;;4.79;100.00;99515.38;4992783;28;20219;-63
2021/12/27 01:07:29;;;;;;;6.70;3.70;;;4.70;99.90;;;4.79;100.00;99516.22;4992316;28;20317;-65
2021/12/27 01:15:09;;;;;;;7.65;4.28;;;4.70;99.90;;;4.82;100.00;99510.84;4978807;28;20214;-64
2021/12/27 01:17:39;;;;;;;5.50;3.65;;;4.80;99.90;;;4.82;100.00;99508.25;4971982;28;20231;-64
2021/12/27 01:20:13;;;;;;;9.73;5.07;;;4.80;99.90;;;4.83;100.00;99512.50;4982718;28;20199;-64
2021/12/27 01:22:40;;;;;;;5.03;3.25;;;4.80;99.90;;;4.83;100.00;99517.66;4992422;28;20203;-66
2021/12/27 01:25:09;;;;;;;4.25;3.25;;;4.80;99.90;;;4.83;100.00;99528.00;4974240;28;20204;-64
2021/12/27 01:27:36;;;;;;;6.20;3.75;;;4.80;99.90;;;4.84;100.00;99521.91;4990722;28;20574;-65
2021/12/27 01:30:12;;;;;;;10.35;5.35;;;4.80;99.90;;;4.85;100.00;99525.31;4991286;28;20212;-65
2021/12/27 01:32:49;;;;;;;5.17;4.03;;;4.80;99.90;;;4.85;100.00;99526.16;4974086;28;20222;-66
2021/12/27 01:35:16;;;;;;;4.55;3.30;;;4.80;99.90;;;4.85;100.00;99527.91;4989873;28;20637;-64
2021/12/27 01:37:45;;;;;;;7.47;4.10;;;4.80;99.90;;;4.85;100.00;99520.16;5004994;22;20242;-67
2021/12/27 01:40:14;;;;;;;7.38;3.38;;;4.80;99.90;;;4.85;100.00;99520.16;4992139;28;20205;-65
2021/12/27 01:43:14;;;;;;;8.63;4.20;;;4.80;99.90;;;4.86;100.00;99511.44;4992569;28;20209;-66
2021/12/27 01:46:00;;;;;;;6.22;3.05;;;4.80;99.90;;;4.87;100.00;99519.13;5009655;28;20213;-67
2021/12/27 01:48:32;;;;;;;3.92;3.25;;;4.80;99.90;;;4.87;100.00;99524.28;5010908;28;20234;-67
2021/12/27 01:51:01;;;;;;;3.85;3.17;;;4.80;99.90;;;4.89;100.00;99527.59;4993466;28;20250;-65
2021/12/27 01:53:32;;;;;;;5.30;4.20;;;4.90;99.90;;;4.93;100.00;99518.72;4990936;28;20214;-65
2021/12/27 01:56:00;;;;;;;6.83;4.50;;;4.90;99.90;;;4.95;100.00;99521.19;4990028;28;20624;-67
2021/12/27 01:58:30;;;;;;;7.35;4.60;;;4.90;99.90;;;4.96;100.00;99520.28;4991287;28;21228;-67
2021/12/27 02:00:59;;;;;;;6.63;4.03;;;4.90;99.90;;;5.00;100.00;99519.13;5007311;28;20206;-64
2021/12/27 02:03:29;;;;;;;5.93;3.90;;;4.90;99.90;;;4.99;100.00;99512.28;5010226;28;20621;-65
2021/12/27 02:05:56;;;;;;;6.67;3.60;;;4.90;99.90;;;5.01;100.00;99511.28;4992102;28;20647;-67
2021/12/27 02:08:24;;;;;;;8.13;3.80;;;4.90;99.90;;;5.00;100.00;99508.78;5010822;28;20641;-67
2021/12/27 02:10:51;;;;;;;6.30;3.50;;;4.90;99.90;;;5.01;100.00;99508.69;4992655;28;20225;-67
2021/12/27 02:13:19;;;;;;;8.23;4.07;;;4.90;99.90;;;5.01;100.00;99495.75;5016000;28;20637;-66
2021/12/27 02:15:47;;;;;;;8.45;4.18;;;4.90;99.90;;;5.01;100.00;99503.50;4992685;28;20195;-66
2021/12/27 02:18:14;;;;;;;10.02;4.65;;;4.90;99.90;;;5.03;100.00;99504.25;5011101;28;20219;-67
2021/12/27 02:20:43;;;;;;;4.13;2.95;;;5.00;99.90;;;5.01;100.00;99498.34;5014011;28;20199;-65
2021/12/27 02:23:16;;;;;;;8.70;4.30;;;5.00;99.90;;;5.04;100.00;99499.91;5015868;28;20211;-65
2021/12/27 02:25:47;;;;;;;8.73;4.55;;;5.00;99.90;;;5.07;100.00;99494.53;4996425;28;20285;-65
2021/12/27 02:28:17;;;;;;;8.80;4.30;;;5.00;99.90;;;5.08;100.00;99494.44;5013510;28;20225;-67
2021/12/27 02:30:45;;;;;;;7.20;3.80;;;5.00;99.90;;;5.09;100.00;99488.31;5012763;28;20642;-67
2021/12/27 02:33:14;;;;;;;6.95;4.20;;;5.00;99.90;;;5.11;100.00;99490.81;5013638;28;21210;-67
2021/12/27 02:35:48;;;;;;;9.15;5.18;;;5.10;99.90;;;5.11;100.00;99476.09;4996007;28;20199;-65
2021/12/27 02:38:22;;;;;;;11.70;4.88;;;5.10;99.90;;;5.03;100.00;99472.38;4997816;28;20232;-67
2021/12/27 02:40:51;;;;;;;6.85;3.80;;;5.00;99.90;;;5.03;100.00;99474.97;4996114;28;20201;-67
2021/12/27 02:43:25;;;;;;;12.18;6.43;;;5.00;99.90;;;5.01;100.00;99463.91;4979504;28;20191;-65
2021/12/27 02:45:59;;;;;;;11.38;5.75;;;5.00;99.90;;;4.96;100.00;99477.13;5013159;28;20195;-65
2021/12/27 02:48:48;;;;;;;10.38;5.35;;;4.90;99.90;;;4.97;100.00;99485.72;5015717;28;20313;-65
2021/12/27 02:51:18;;;;;;;12.75;6.88;;;4.90;99.90;;;4.98;100.00;99485.66;5019705;28;20227;-65
2021/12/27 02:53:46;;;;;;;6.68;3.60;;;4.90;99.90;;;5.00;100.00;99490.69;5014306;28;20265;-65
2021/12/27 02:56:14;;;;;;;9.43;5.20;;;5.00;99.90;;;5.02;100.00;99492.25;4997200;28;20285;-65
2021/12/27 02:58:41;;;;;;;15.27;6.97;;;5.00;99.90;;;4.99;100.00;99473.53;5014706;28;20226;-67
2021/12/27 03:01:19;;;;;;;7.40;5.05;;;4.90;99.90;;;4.97;100.00;99475.38;5014633;28;20206;-67
2021/12/27 03:03:46;;;;;;;8.88;4.43;;;4.90;99.90;;;4.94;100.00;99478.19;5014024;28;20292;-65
2021/12/27 03:06:13;;;;;;;8.57;5.20;;;4.90;99.90;;;4.96;100.00;99466.78;5012556;28;20325;-66
2021/12/27 03:08:42;;;;;;;7.30;3.90;;;4.90;99.90;;;5.00;100.00;99467.44;4996539;28;20237;-66
2021/12/27 03:11:10;;;;;;;7.00;4.38;;;4.90;99.90;;;5.06;100.00;99469.59;4995558;28;21016;-65
2021/12/27 03:13:40;;;;;;;6.93;3.80;;;5.00;99.90;;;5.05;100.00;99460.19;5014427;28;20198;-67
2021/12/27 03:16:11;;;;;;;5.78;4.10;;;5.00;99.90;;;5.01;100.00;99463.91;5010894;28;20209;-65
2021/12/27 03:18:45;;;;;;;9.95;5.30;;;4.90;99.90;;;5.02;100.00;99465.56;5013540;28;20211;-65
2021/12/27 03:21:12;;;;;;;5.30;3.90;;;4.90;99.90;;;4.99;100.00;99469.19;4994998;28;20209;-67
2021/12/27 03:23:41;;;;;;;7.53;4.25;;;4.90;99.90;;;4.99;100.00;99468.34;5014013;28;20205;-67
2021/12/27 03:26:09;;;;;;;10.93;5.00;;;4.90;99.90;;;4.97;100.00;99465.88;5013284;28;20209;-67
2021/12/27 03:28:38;;;;;;;5.70;3.87;;;4.90;99.90;;;4.95;100.00;99460.00;5011030;28;20733;-66
2021/12/27 03:31:07;;;;;;;9.07;5.35;;;4.90;99.90;;;4.95;100.00;99461.75;5010644;28;20651;-65
2021/12/27 03:33:35;;;;;;;7.50;4.10;;;4.90;99.90;;;4.96;100.00;99453.88;5010855;28;20254;-66
2021/12/27 03:36:07;;;;;;;7.60;5.22;;;4.90;99.90;;;4.99;100.00;99452.84;5012512;28;20697;-67
2021/12/27 03:38:40;;;;;;;6.15;4.55;;;4.90;99.90;;;5.02;100.00;99447.47;5012196;28;20226;-66
2021/12/27 03:41:17;;;;;;;10.25;6.57;;;5.00;99.90;;;5.03;100.00;99452.53;4995954;28;20667;-67
2021/12/27 03:43:44;;;;;;;10.00;5.47;;;5.00;99.90;;;5.01;100.00;99448.41;4995269;28;20202;-66
2021/12/27 03:46:11;;;;;;;5.75;3.70;;;4.90;99.90;;;5.03;100.00;99451.69;4993754;28;20685;-67
2021/12/27 03:48:38;;;;;;;7.53;4.00;;;5.00;99.90;;;5.06;100.00;99451.50;4998419;28;20217;-66
2021/12/27 03:51:06;;;;;;;6.28;4.10;;;5.00;99.90;;;5.09;100.00;99452.13;5032284;28;20655;-67
2021/12/27 03:53:34;;;;;;;11.60;6.15;;;5.00;99.90;;;5.09;100.00;99457.28;5013696;28;20202;-67
2021/12/27 03:56:02;;;;;;;9.93;5.72;;;5.00;99.90;;;5.12;100.00;99459.66;4995493;28;20203;-64
2021/12/27 03:58:45;;;;;;;7.30;4.90;;;5.00;99.90;;;5.12;100.00;99451.09;5011624;28;20222;-65
2021/12/27 04:01:21;;;;;;;11.00;5.63;;;5.10;99.90;;;5.14;100.00;99452.63;5008869;28;20206;-66
2021/12/27 04:03:56;;;;;;;9.40;5.82;;;5.10;99.90;;;5.15;100.00;99461.22;5004676;28;20727;-65
2021/12/27 04:06:25;;;;;;;12.20;6.35;;;5.10;99.90;;;5.16;100.00;99455.09;5012285;28;20686;-67
2021/12/27 04:08:52;;;;;;;8.25;5.53;;;5.10;99.90;;;5.13;100.00;99450.97;4993770;28;20237;-65
2021/12/27 04:11:19;;;;;;;13.02;6.18;;;5.10;99.90;;;5.14;100.00;99450.06;4994800;28;20209;-68
2021/12/27 04:13:46;;;;;;;10.73;4.95;;;5.10;99.90;;;5.14;100.00;99449.22;5011746;28;20662;-68
2021/12/27 04:16:13;;;;;;;5.93;3.65;;;5.00;99.90;;;5.15;100.00;99453.47;4994321;28;20199;-67
2021/12/27 04:18:40;;;;;;;6.93;4.50;;;5.10;99.90;;;5.16;100.00;99448.19;5011516;28;20603;-67
2021/12/27 04:21:07;;;;;;;10.13;6.03;;;5.10;99.90;;;5.17;100.00;99444.69;4993545;28;20620;-67
2021/12/27 04:23:34;;;;;;;9.02;5.57;;;5.10;99.90;;;5.18;100.00;99445.50;5012191;28;20206;-66
2021/12/27 04:26:01;;;;;;;8.17;4.83;;;5.10;99.90;;;5.19;100.00;99447.16;4993234;28;20199;-66
2021/12/27 04:28:28;;;;;;;10.82;5.63;;;5.10;99.90;;;5.20;100.00;99447.03;5012520;28;20638;-68
2021/12/27 04:30:55;;;;;;;8.63;5.25;;;5.10;99.90;;;5.16;100.00;99448.19;5011177;28;20203;-65
2021/12/27 04:33:22;;;;;;;19.67;5.30;;;5.10;99.90;;;5.19;100.00;99452.31;5010658;28;20237;-65
2021/12/27 04:35:49;;;;;;;8.35;5.50;;;5.10;99.90;;;5.22;100.00;99455.53;4994290;28;20601;-65
2021/12/27 04:38:17;;;;;;;12.32;4.70;;;5.10;99.90;;;5.23;100.00;99446.00;5010932;28;20316;-66
2021/12/27 04:40:47;;;;;;;8.52;5.47;;;5.10;99.90;;;5.25;100.00;99446.72;4994872;28;20210;-68
2021/12/27 04:43:19;;;;;;;10.60;5.87;;;5.20;99.90;;;5.25;100.00;99444.16;5010217;28;20206;-66
2021/12/27 04:45:48;;;;;;;12.20;5.40;;;5.20;99.90;;;5.26;100.00;99438.06;5010751;28;20639;-66
2021/12/27 04:48:17;;;;;;;9.35;5.07;;;5.20;99.90;;;5.22;100.00;99439.16;5010558;28;20757;-65
2021/12/27 04:50:44;;;;;;;7.90;4.50;;;5.10;99.90;;;5.22;100.00;99437.41;5012476;28;20217;-65
2021/12/27 04:53:12;;;;;;;5.00;3.83;;;5.10;99.90;;;5.25;100.00;99433.81;5011654;28;20672;-67
2021/12/27 04:55:39;;;;;;;6.87;3.87;;;5.10;99.90;;;5.23;100.00;99431.34;5009887;28;20233;-65
2021/12/27 04:58:09;;;;;;;8.85;4.80;;;5.10;99.90;;;5.17;100.00;99420.56;4994687;28;20633;-65
2021/12/27 05:00:38;;;;;;;8.75;4.40;;;5.10;99.90;;;5.16;100.00;99424.09;5011396;28;20209;-67
2021/12/27 05:03:06;;;;;;;9.73;4.22;;;5.10;99.90;;;5.14;100.00;99411.28;4994173;28;20307;-68
2021/12/27 05:05:33;;;;;;;8.98;3.85;;;5.00;99.90;;;5.13;100.00;99401.84;5010212;28;20218;-65
2021/12/27 05:08:01;;;;;;;7.43;4.25;;;5.00;99.90;;;5.13;100.00;99401.03;5011299;28;20530;-65
2021/12/27 05:10:29;;;;;;;12.35;6.60;;;5.10;99.90;;;5.13;100.00;99406.22;5011623;28;20212;-68
2021/12/27 05:12:57;;;;;;;12.32;6.45;;;5.00;99.90;;;5.18;100.00;99411.88;5010721;28;20500;-67
2021/12/27 05:15:25;;;;;;;16.25;6.25;;;5.10;99.90;;;5.18;100.00;99415.28;5009464;28;20800;-66
2021/12/27 05:17:52;;;;;;;14.53;7.03;;;5.10;99.90;;;5.25;100.00;99405.34;4990191;28;20767;-66
2021/12/27 05:20:19;;;;;;;14.25;6.80;;;5.20;99.90;;;5.28;100.00;99410.31;4994137;28;20625;-68
2021/12/27 05:22:46;;;;;;;15.75;6.80;;;5.20;99.90;;;5.32;100.00;99412.56;5010197;28;20671;-66
2021/12/27 05:25:16;;;;;;;11.13;5.93;;;5.30;99.90;;;5.33;100.00;99414.22;5010898;28;20206;-65
2021/12/27 05:27:44;;;;;;;9.25;4.47;;;5.30;99.90;;;5.34;100.00;99410.72;4993248;28;20224;-67
2021/12/27 05:30:17;;;;;;;14.20;4.17;;;5.30;99.90;;;5.36;100.00;99413.19;4990615;28;20668;-65
2021/12/27 05:32:45;;;;;;;9.57;4.88;;;5.30;99.90;;;5.36;100.00;99398.53;5010110;28;20720;-67
2021/12/27 05:35:13;;;;;;;13.45;5.13;;;5.30;99.90;;;5.36;100.00;99401.09;5008609;28;20612;-67
2021/12/27 05:37:41;;;;;;;12.68;5.80;;;5.30;99.90;;;5.34;100.00;99396.97;5011308;28;20289;-67
2021/12/27 05:40:13;;;;;;;10.23;6.15;;;5.30;99.90;;;5.35;100.00;99401.19;5009878;28;20199;-67
2021/12/27 05:42:40;;;;;;;11.67;4.87;;;5.30;99.90;;;5.36;100.00;99406.28;5011703;28;20206;-65
2021/12/27 05:45:07;;;;;;;13.13;7.10;;;5.30;99.90;;;5.37;100.00;99394.16;5011646;28;21010;-68
2021/12/27 05:47:35;;;;;;;13.23;5.50;;;5.30;99.90;;;5.37;100.00;99388.97;5011671;28;20230;-65
2021/12/27 05:50:05;;;;;;;5.50;4.30;;;5.30;99.90;;;5.37;100.00;99386.38;5008336;28;20218;-67
2021/12/27 05:52:32;;;;;;;7.68;4.15;;;5.30;99.90;;;5.38;100.00;99388.06;4995002;28;20668;-65
2021/12/27 05:54:59;;;;;;;6.83;4.40;;;5.30;99.90;;;5.37;100.00;99376.88;5010163;28;20210;-68
2021/12/27 05:57:26;;;;;;;6.73;4.33;;;5.30;99.90;;;5.39;100.00;99382.75;5010457;28;20653;-65
2021/12/27 05:59:53;;;;;;;7.03;3.90;;;5.30;99.90;;;5.40;100.00;99373.25;5011456;28;20609;-65
2021/12/27 06:02:21;;;;;;;7.50;3.77;;;5.30;99.90;;;5.39;100.00;99380.19;5010168;28;20653;-67
2021/12/27 06:04:48;;;;;;;4.33;3.50;;;5.30;99.90;;;5.34;100.00;99371.09;5010665;28;20622;-66
2021/12/27 06:07:16;;;;;;;8.70;4.40;;;5.20;99.90;;;5.39;100.00;99356.06;5008988;28;20756;-67
2021/12/27 06:09:43;;;;;;;9.43;5.55;;;5.30;99.90;;;5.39;100.00;99361.25;5010119;28;20637;-67
2021/12/27 06:12:10;;;;;;;9.00;6.40;;;5.30;99.90;;;5.36;100.00;99369.22;4993109;28;20694;-67
2021/12/27 06:14:38;;;;;;;10.65;5.25;;;5.20;99.90;;;5.37;100.00;99368.28;5009027;28;20649;-65
2021/12/27 06:17:05;;;;;;;5.40;4.13;;;5.30;99.90;;;5.39;100.00;99376.75;5010380;28;20203;-67
2021/12/27 06:19:32;;;;;;;6.43;4.03;;;5.30;99.90;;;5.41;100.00;99355.03;5010491;28;20643;-67
2021/12/27 06:22:03;;;;;;;7.80;4.18;;;5.30;99.90;;;5.44;100.00;99356.56;5009501;28;20648;-67
2021/12/27 06:24:29;;;;;;;10.00;5.07;;;5.40;99.90;;;5.42;100.00;99355.88;5010152;28;20398;-66
2021/12/27 06:26:56;;;;;;;7.67;3.73;;;5.40;99.90;;;5.43;100.00;99349.78;4975601;28;20585;-65
2021/12/27 06:29:23;;;;;;;8.57;4.75;;;5.30;99.90;;;5.45;100.00;99350.47;5010487;28;20598;-67
2021/12/27 06:31:51;;;;;;;9.67;5.20;;;5.40;99.90;;;5.47;100.00;99352.00;5009856;28;20198;-67
2021/12/27 06:34:18;;;;;;;12.20;6.10;;;5.40;99.90;;;5.50;100.00;99350.97;4994158;28;20609;-65
2021/12/27 06:36:46;;;;;;;13.33;5.63;;;5.40;99.90;;;5.51;100.00;99356.03;5009667;28;20640;-68
2021/12/27 06:39:13;;;;;;;12.00;6.15;;;5.40;99.90;;;5.54;100.00;99357.56;5010261;28;20649;-68
2021/12/27 06:41:40;;;;;;;17.50;7.60;;;5.50;99.90;;;5.59;100.00;99347.72;5010118;28;20281;-67
2021/12/27 06:44:07;;;;;;;16.90;5.18;;;5.50;99.90;;;5.52;100.00;99349.09;5010659;28;20673;-66
2021/12/27 06:46:34;;;;;;;12.07;5.60;;;5.40;99.90;;;5.52;100.00;99349.09;5009044;28;20580;-65
2021/12/27 06:49:01;;;;;;;13.40;4.90;;;5.40;99.90;;;5.53;100.00;99358.53;5009580;28;21084;-68
2021/12/27 06:51:29;;;;;;;11.43;5.40;;;5.40;99.90;;;5.55;100.00;99355.81;5003837;28;21223;-67
2021/12/27 06:53:57;;;;;;;10.00;5.60;;;5.50;99.90;;;5.53;100.00;99357.69;5010192;28;20672;-67
2021/12/27 06:56:24;;;;;;;9.17;4.83;;;5.40;99.90;;;5.50;100.00;99348.38;5016765;28;20613;-65
2021/12/27 06:58:51;;;;;;;10.07;5.57;;;5.40;99.90;;;5.50;100.00;99351.78;5008699;28;20649;-67
2021/12/27 07:01:18;;;;;;;5.93;4.30;;;5.40;99.90;;;5.53;100.00;99345.59;5008553;28;21066;-67
2021/12/27 07:03:45;;;;;;;11.40;4.30;;;5.40;99.90;;;5.58;100.00;99347.84;5013819;28;20727;-66
2021/12/27 07:06:12;;;;;;;10.37;5.30;;;5.50;99.90;;;5.58;100.00;99335.72;5010675;28;20635;-68
2021/12/27 07:08:39;;;;;;;7.60;3.85;;;5.50;99.90;;;5.58;100.00;99335.72;5013006;28;20676;-67
2021/12/27 07:11:06;;;;;;;8.70;4.22;;;5.50;99.90;;;5.59;100.00;99336.53;5011978;28;20684;-66
2021/12/27 07:13:33;;;;;;;10.23;5.00;;;5.50;99.90;;;5.62;100.00;99336.34;5013253;28;20213;-66
2021/12/27 07:16:00;;;;;;;11.07;5.43;;;5.50;99.90;;;5.62;100.00;99337.16;5012081;28;20632;-65
2021/12/27 07:18:27;;;;;;;7.30;4.67;;;5.50;99.90;;;5.64;100.00;99348.22;5012872;28;21023;-68
2021/12/27 07:20:55;;;;;;;19.53;6.47;;;5.60;99.90;;;5.67;100.00;99348.00;4997448;28;20617;-66
2021/12/27 07:23:22;;;;;;;11.87;5.50;;;5.60;99.90;;;5.70;100.00;99349.53;4995805;28;20716;-66
2021/12/27 07:25:49;;;;;;;12.80;6.60;;;5.60;99.90;;;5.71;100.00;99351.22;5008201;28;20628;-66
2021/12/27 07:28:16;;;;;;;10.67;5.57;;;5.60;99.90;;;5.71;100.00;99353.78;5011694;28;20700;-66
2021/12/27 07:30:43;;;;;;;16.37;7.40;;;5.60;99.90;;;5.69;100.00;99355.63;4992400;28;20629;-67
2021/12/27 07:33:10;;;;;;;12.30;6.80;;;5.60;99.90;;;5.67;100.00;99360.94;5012634;28;20642;-65
2021/12/27 07:35:37;;;;;;;11.73;5.30;;;5.60;99.90;;;5.66;100.00;99356.72;4975951;28;20641;-66
2021/12/27 07:38:05;;;;;;;16.50;6.53;;;5.60;99.90;;;5.68;100.00;99357.44;5040123;22;21147;-62
2021/12/27 07:40:32;;;;;;;16.33;6.87;;;5.60;99.90;;;5.68;100.00;99367.78;5052064;28;21009;-63
2021/12/27 07:42:59;;;;;;;11.43;6.63;;;5.60;99.90;;;5.69;100.00;99371.16;5012227;28;20645;-64
2021/12/27 07:45:27;;;;;;;7.40;4.70;;;5.60;99.90;;;5.70;100.00;99362.47;5045365;28;20624;-62
2021/12/27 07:47:54;;;;;;;13.87;6.67;;;5.60;99.90;;;5.71;100.00;99359.78;5052277;28;20650;-63
2021/12/27 07:50:21;;;;;;;12.63;5.97;;;5.60;99.90;;;5.72;100.00;99360.59;5049839;28;20737;-63
2021/12/27 07:52:50;;;;;;;10.83;6.33;;;5.60;99.90;;;5.73;100.00;99357.09;5035978;28;20666;-63
2021/12/27 07:55:19;;;;;;;9.13;6.07;;;5.70;99.90;;;5.76;100.00;99354.28;5038719;28;20623;-64
2021/12/27 07:57:46;;;;;;;12.45;6.97;;;5.70;99.90;;;5.79;100.00;99360.03;5045726;28;20685;-64
2021/12/27 08:00:52;;;;;;;16.27;6.72;;;5.70;99.90;;;5.79;100.00;99352.28;5046295;28;20201;-65
2021/12/27 08:03:20;;;;;;;17.97;6.00;;;5.70;99.90;;;5.80;100.00;99353.94;5004969;28;20300;-64
2021/12/27 08:05:48;;;;;;;15.50;6.13;;;5.70;99.90;;;5.83;100.00;99351.16;5042692;28;20647;-65
2021/12/27 08:08:15;;;;;;;10.30;5.30;;;5.80;99.90;;;5.85;100.00;99354.47;5034066;28;20665;-64
2021/12/27 08:10:43;;;;;;;8.90;4.93;;;5.80;99.90;;;5.88;100.00;99351.66;5034417;28;20635;-64
2021/12/27 08:13:10;;;;;;;11.43;6.80;;;5.80;99.90;;;5.91;100.00;99364.38;5053174;28;20717;-63
2021/12/27 08:15:38;;;;;;;17.10;7.77;;;5.90;99.90;;;5.90;100.00;99362.72;5049918;28;20730;-63
2021/12/27 08:18:05;;;;;;;16.50;7.03;;;5.90;99.90;;;5.94;100.00;99353.78;5046847;28;20750;-64
2021/12/27 08:20:32;;;;;;;18.30;7.63;;;5.90;99.90;;;5.96;100.00;99346.72;5033620;28;20991;-63
2021/12/27 08:22:59;;;;;;;18.43;8.10;;;5.90;99.90;;;5.96;100.00;99343.34;5033872;28;20663;-64
2021/12/27 08:25:26;;;;;;;14.17;6.60;;;5.90;99.90;;;5.95;100.00;99347.69;5047201;28;20728;-63
2021/12/27 08:27:53;;;;;;;12.67;5.50;;;5.90;99.90;;;5.93;100.00;99341.78;5050976;28;20770;-64
2021/12/27 08:30:20;;;;;;;8.47;4.37;;;5.90;99.90;;;5.97;100.00;99338.03;5034648;28;21023;-63
2021/12/27 08:32:47;;;;;;;15.50;5.50;;;5.90;99.90;;;6.00;100.00;99332.66;5022224;28;20657;-64
2021/12/27 08:35:15;;;;;;;14.60;6.10;;;5.90;99.90;;;6.05;100.00;99334.88;5033330;28;20638;-64
2021/12/27 08:37:44;;;;;;;27.23;8.13;;;6.00;99.90;;;6.13;100.00;99346.31;5051633;28;20643;-63
2021/12/27 08:40:12;;;;;;;15.63;5.77;;;6.10;99.90;;;6.18;100.00;99333.88;5033344;28;20608;-63
2021/12/27 08:42:40;;;;;;;14.77;6.07;;;6.20;99.90;;;6.30;100.00;99336.50;5031057;28;20645;-64
2021/12/27 08:45:08;;;;;;;17.37;6.80;;;6.30;99.90;;;6.53;100.00;99348.53;5044500;28;20649;-64
2021/12/27 08:47:35;;;;;;;19.83;8.30;;;6.60;99.90;;;6.99;100.00;99329.34;5033672;28;21264;-64
2021/12/27 08:50:06;;;;;;;22.40;8.70;;;7.20;99.90;;;7.59;100.00;99336.66;5049829;28;20615;-63
2021/12/27 08:52:34;;;;;;;17.17;7.70;;;7.90;99.90;;;7.89;98.95;99335.13;5032725;28;20644;-63
2021/12/27 08:55:02;;;;;;;22.97;8.50;;;8.20;99.90;;;7.88;96.04;99336.09;5049318;28;21187;-64
2021/12/27 08:57:31;;;;;;;25.00;8.37;;;8.10;99.90;;;7.83;95.03;99332.09;5050352;28;20731;-63
2021/12/27 08:59:59;;;;;;;18.47;7.57;;;8.00;99.90;;;7.73;94.56;99325.97;5031676;28;21000;-63
2021/12/27 09:02:26;;;;;;;12.20;6.70;;;7.80;99.90;;;7.66;94.73;99330.03;5049855;28;20659;-65
2021/12/27 09:04:54;;;;;;;19.23;8.30;;;7.70;99.90;;;7.77;95.36;99324.78;5049723;28;20628;-65
2021/12/27 09:07:21;;;;;;;21.37;9.40;;;7.80;99.90;;;7.95;95.80;99319.88;5049650;28;20603;-62
2021/12/27 09:09:48;;;;;;;18.03;8.33;;;8.00;99.90;;;8.19;95.27;99322.25;5014969;28;21190;-63
2021/12/27 09:12:15;;;;;;;21.07;8.53;;;8.40;99.90;;;8.43;94.04;99315.03;5036669;28;20617;-63
2021/12/27 09:14:42;;;;;;;14.17;6.70;;;8.60;99.90;;;8.73;92.92;99316.84;5047156;28;21241;-63
2021/12/27 09:17:12;;;;;;;17.57;8.00;;;9.00;99.90;;;8.94;91.15;99312.41;5033968;28;20643;-63
2021/12/27 09:19:39;;;;;;;18.47;7.97;;;9.20;99.90;;;9.09;90.51;99311.88;5024082;28;20630;-63
2021/12/27 09:22:06;;;;;;;18.47;7.53;;;9.30;99.90;;;9.12;89.85;99308.19;5040468;28;20608;-63
2021/12/27 09:24:33;;;;;;;16.40;7.33;;;9.30;99.90;;;9.23;90.46;99305.50;5030922;28;20647;-64
2021/12/27 09:27:00;;;;;;;11.30;7.00;;;9.40;99.90;;;9.34;90.05;99308.81;5047459;28;20631;-66
2021/12/27 09:29:28;;;;;;;30.37;9.87;;;9.50;99.90;;;9.50;89.87;99308.28;5048295;28;20666;-63
2021/12/27 09:31:55;;;;;;;23.33;9.70;;;9.70;99.90;;;9.58;88.42;99305.00;5036038;28;20629;-63
2021/12/27 09:34:22;;;;;;;23.97;9.83;;;9.70;99.90;;;9.59;87.85;99302.25;5043075;28;20695;-63
2021/12/27 09:36:49;;;;;;;20.30;10.07;;;9.70;99.90;;;9.58;86.93;99312.81;5041645;28;20722;-63
2021/12/27 09:39:17;;;;;;;20.60;9.40;;;9.60;99.90;;;9.46;86.44;99308.66;5049931;28;20650;-64
2021/12/27 09:41:44;;;;;;;18.30;8.00;;;9.50;99.90;;;9.30;87.33;99306.59;5048776;28;21218;-63
2021/12/27 09:44:11;;;;;;;30.93;10.83;;;9.20;99.90;;;8.99;87.78;99295.44;5049047;28;20684;-63
2021/12/27 09:46:39;;;;;;;21.07;10.30;;;9.00;99.90;;;8.77;88.95;99303.44;5046551;28;20643;-63
2021/12/27 09:49:14;;;;;;;22.90;10.53;;;8.70;99.90;;;8.50;90.16;99303.16;5049965;28;20636;-63
2021/12/27 09:51:42;;;;;;;20.40;9.33;;;8.50;99.90;;;8.21;91.24;99294.34;5049811;28;20634;-63
2021/12/27 09:54:09;;;;;;;17.53;8.40;;;8.20;99.90;;;8.14;91.79;99296.63;5032596;28;20660;-64
2021/12/27 09:56:36;;;;;;;12.80;6.80;;;8.10;99.90;;;8.25;92.22;99295.75;5019719;28;20638;-64
2021/12/27 09:59:04;;;;;;;20.30;9.57;;;8.30;99.90;;;8.35;91.66;99291.44;5046068;28;20742;-64
2021/12/27 10:01:31;;;;;;;15.77;6.87;;;8.50;99.90;;;8.41;91.45;99278.75;5037051;28;20657;-63
2021/12/27 10:04:01;;;;;;;10.40;5.47;;;8.50;99.90;;;8.50;91.37;99278.00;5063341;28;20619;-64
2021/12/27 10:06:31;;;;;;;15.03;5.90;;;8.60;99.90;;;8.62;91.91;99264.91;5058792;28;20648;-63
2021/12/27 10:09:01;;;;;;;15.87;7.40;;;8.70;99.90;;;8.83;91.92;99263.91;5049765;28;20627;-64
2021/12/27 10:11:42;;;;;;;16.63;7.50;;;9.00;99.90;;;8.90;90.36;99256.41;5047804;28;20632;-64
2021/12/27 10:14:16;;;;;;;13.47;7.23;;;9.10;99.90;;;8.64;90.88;99257.81;5050808;28;20758;-64
2021/12/27 10:16:47;;;;;;;14.67;6.87;;;8.90;99.90;;;8.78;91.23;99253.06;5033964;28;20637;-63
2021/12/27 10:19:16;;;;;;;13.80;6.83;;;8.80;99.90;;;8.94;91.75;99252.56;5004242;28;20648;-63
2021/12/27 10:21:46;;;;;;;12.80;6.90;;;9.00;99.90;;;9.07;90.94;99243.53;5039259;28;21197;-64
2021/12/27 10:24:17;;;;;;;19.17;9.00;;;9.20;99.90;;;9.05;90.87;99242.84;5027163;28;20998;-63
2021/12/27 10:26:49;;;;;;;15.53;6.90;;;9.10;99.90;;;9.08;90.72;99241.78;5022336;28;20649;-63
2021/12/27 10:29:18;;;;;;;13.87;6.83;;;9.00;99.90;;;9.05;90.98;99237.66;5028822;28;20629;-64
2021/12/27 10:31:53;;;;;;;14.90;6.57;;;9.00;99.90;;;9.09;91.40;99246.84;5013279;28;20646;-63
2021/12/27 10:34:23;;;;;;;17.73;8.03;;;9.10;99.90;;;9.13;91.90;99243.03;5039891;28;20660;-63